Time;durP1;ratioP1;P1;durP2;ratioP2;P2;SDS_P1;SDS_P2;PMS_P1;PMS_P2;Temp;Humidity;BMP_temperature;BMP_pressure;BME280_temperature;BME280_humidity;BME280_pressure;Samples;Min_cycle;Max_cycle;Signal;HPM_P1;HPM_P2
2022/10/17 00:00:13;;;;;;;;;;;;;;;17.55;50.33;102198.38;5079175;28;1205;-58
2022/10/17 00:02:38;;;;;;;;;;;;;;;17.14;49.43;102192.03;5079454;28;1217;-58
2022/10/17 00:05:04;;;;;;;;;;;;;;;18.20;49.26;102193.50;5079859;28;1221;-56
2022/10/17 00:07:29;;;;;;;;;;;;;;;17.39;50.07;102197.22;5079684;28;1122;-56
2022/10/17 00:09:55;;;;;;;;;;;;;;;17.19;49.01;102203.97;5079427;28;1917;-56
2022/10/17 00:12:20;;;;;;;;;;;;;;;18.00;49.37;102205.84;5078782;28;1126;-57
2022/10/17 00:14:46;;;;;;;;;;;;;;;17.33;49.50;102199.03;5067762;28;1233;-57
2022/10/17 00:17:11;;;;;;;;;;;;;;;17.15;48.33;102204.72;5076182;28;1099;-56
2022/10/17 00:19:36;;;;;;;;;;;;;;;17.19;48.77;102205.91;5079182;28;1217;-56
2022/10/17 00:22:02;;;;;;;;;;;;;;;17.52;49.25;102205.19;5078594;28;1154;-56
2022/10/17 00:24:29;;;;;;;;;;;;;;;17.10;48.73;102198.03;5079277;28;1205;-56
2022/10/17 00:26:54;;;;;;;;;;;;;;;16.94;48.08;102204.28;5078728;28;1150;-56
2022/10/17 00:29:19;;;;;;;;;;;;;;;16.87;47.36;102198.91;5078990;28;1909;-57
2022/10/17 00:31:46;;;;;;;;;;;;;;;18.21;48.09;102190.50;5079292;28;1217;-57
2022/10/17 00:34:12;;;;;;;;;;;;;;;17.40;48.87;102199.75;5078472;28;1154;-56
2022/10/17 00:36:37;;;;;;;;;;;;;;;17.08;48.38;102189.22;5079181;28;1194;-56
2022/10/17 00:39:02;;;;;;;;;;;;;;;17.30;48.65;102180.28;5078488;28;1154;-56
2022/10/17 00:41:29;;;;;;;;;;;;;;;17.98;48.64;102186.00;5078878;28;1123;-55
2022/10/17 00:43:59;;;;;;;;;;;;;;;17.36;48.77;102179.31;5078287;28;1079;-56
2022/10/17 00:46:28;;;;;;;;;;;;;;;17.07;48.85;102181.22;5078379;28;1166;-56
2022/10/17 00:48:54;;;;;;;;;;;;;;;17.77;48.85;102188.34;5078765;28;1913;-56
2022/10/17 00:51:22;;;;;;;;;;;;;;;17.21;48.89;102176.28;5078073;28;1115;-56
2022/10/17 00:53:47;;;;;;;;;;;;;;;17.12;48.05;102177.72;5076837;28;1238;-56
2022/10/17 00:56:12;;;;;;;;;;;;;;;18.13;48.23;102175.25;5060479;28;1100;-56
2022/10/17 00:58:38;;;;;;;;;;;;;;;17.38;48.97;102182.66;5060725;28;1127;-55
2022/10/17 01:01:03;;;;;;;;;;;;;;;17.12;48.29;102178.53;5060655;28;1264;-58
2022/10/17 01:03:29;;;;;;;;;;;;;;;17.74;48.82;102186.09;5058998;28;1218;-58
2022/10/17 01:05:55;;;;;;;;;;;;;;;17.35;48.94;102188.66;5060967;28;1198;-57
2022/10/17 01:08:21;;;;;;;;;;;;;;;17.08;48.04;102189.22;5049181;28;1905;-55
2022/10/17 01:11:00;;;;;;;;;;;;;;;17.86;48.25;102179.69;5060057;28;1174;-55
2022/10/17 01:13:45;;;;;;;;;;;;;;;17.16;48.53;102187.16;5060344;28;1151;-55
2022/10/17 01:16:18;;;;;;;;;;;;;;;17.03;47.65;102180.03;5077519;28;1096;-56
2022/10/17 01:18:54;;;;;;;;;;;;;;;16.81;47.33;102183.34;5076879;28;1158;-56
2022/10/17 01:21:29;;;;;;;;;;;;;;;17.30;48.03;102185.78;5060248;28;1628;-56
2022/10/17 01:24:04;;;;;;;;;;;;;;;17.49;48.70;102182.84;5059608;28;1265;-56
2022/10/17 01:26:39;;;;;;;;;;;;;;;17.51;48.97;102175.19;5060231;28;1552;-56
2022/10/17 01:29:16;;;;;;;;;;;;;;;17.87;49.69;102175.88;5073704;28;1910;-56
2022/10/17 01:31:47;;;;;;;;;;;;;;;15.65;54.07;102176.38;5066243;28;2228;-54
2022/10/17 01:34:12;;;;;;;;;;;;;;;17.85;50.32;102183.50;5057470;28;1206;-56
2022/10/17 01:36:52;;;;;;;;;;;;;;;17.46;50.51;102178.69;5059976;28;1608;-56
2022/10/17 01:39:30;;;;;;;;;;;;;;;17.04;49.50;102188.03;5075864;28;1193;-56
2022/10/17 01:42:14;;;;;;;;;;;;;;;17.57;49.64;102190.69;5046823;28;1186;-56
2022/10/17 01:44:39;;;;;;;;;;;;;;;17.38;50.10;102192.84;5077407;28;1190;-54
2022/10/17 01:47:09;;;;;;;;;;;;;;;17.12;49.25;102189.53;5059771;28;1245;-55
2022/10/17 01:49:35;;;;;;;;;;;;;;;16.99;47.99;102189.81;5076302;28;1909;-54
2022/10/17 01:52:05;;;;;;;;;;;;;;;17.86;48.99;102187.94;5042936;28;1139;-52
2022/10/17 01:54:49;;;;;;;;;;;;;;;17.16;49.31;102190.72;5059539;28;1131;-54
2022/10/17 01:57:38;;;;;;;;;;;;;;;16.97;48.17;102192.81;5030081;28;1233;-55
2022/10/17 02:00:05;;;;;;;;;;;;;;;17.05;48.12;102186.91;5056368;28;1167;-54
2022/10/17 02:02:38;;;;;;;;;;;;;;;17.29;49.18;102197.84;5071067;28;1237;-56
2022/10/17 02:05:03;;;;;;;;;;;;;;;16.99;48.68;102200.81;5028253;28;1312;-55
2022/10/17 02:07:29;;;;;;;;;;;;;;;17.04;47.96;102198.16;5076549;28;1126;-54
2022/10/17 02:09:54;;;;;;;;;;;;;;;17.78;48.51;102208.44;5076949;28;1902;-56
2022/10/17 02:12:40;;;;;;;;;;;;;;;17.08;48.96;102200.19;5077423;28;1210;-56
2022/10/17 02:15:14;;;;;;;;;;;;;;;16.89;47.83;102212.41;5064613;28;1399;-56
2022/10/17 02:17:43;;;;;;;;;;;;;;;17.08;47.90;102216.69;5039250;28;1222;-57
2022/10/17 02:20:17;;;;;;;;;;;;;;;17.56;48.69;102211.06;5039089;28;1194;-56
2022/10/17 02:22:43;;;;;;;;;;;;;;;17.70;49.02;102222.59;5039160;28;1147;-57
2022/10/17 02:25:11;;;;;;;;;;;;;;;18.16;49.49;102219.84;5056954;28;1130;-57
2022/10/17 02:27:46;;;;;;;;;;;;;;;15.63;55.08;102218.84;5057386;28;1377;-56
2022/10/17 02:30:12;;;;;;;;;;;;;;;16.88;50.95;102227.19;5058834;28;1921;-56
2022/10/17 02:32:37;;;;;;;;;;;;;;;17.61;50.49;102233.13;5075470;28;1139;-56
2022/10/17 02:35:03;;;;;;;;;;;;;;;16.98;50.02;102237.59;5059062;28;1249;-57
2022/10/17 02:37:29;;;;;;;;;;;;;;;18.36;49.44;102231.22;5058475;28;1238;-57
2022/10/17 02:39:55;;;;;;;;;;;;;;;17.57;50.17;102231.97;5058567;28;1485;-56
2022/10/17 02:42:20;;;;;;;;;;;;;;;17.20;49.43;102229.56;5042148;28;1142;-56
2022/10/17 02:44:45;;;;;;;;;;;;;;;17.98;49.66;102235.53;5076647;28;1189;-56
2022/10/17 02:47:14;;;;;;;;;;;;;;;17.32;49.77;102226.78;5075163;28;1155;-56
2022/10/17 02:49:40;;;;;;;;;;;;;;;17.22;48.45;102230.16;5057698;28;2062;-56
2022/10/17 02:52:13;;;;;;;;;;;;;;;17.74;49.29;102230.13;5063189;28;876;-56
2022/10/17 02:54:46;;;;;;;;;;;;;;;17.46;49.32;102228.19;5048315;28;1154;-57
2022/10/17 02:57:12;;;;;;;;;;;;;;;17.14;48.45;102225.03;5038601;28;1198;-56
2022/10/17 02:59:37;;;;;;;;;;;;;;;18.12;48.83;102230.56;5056322;28;1159;-56
2022/10/17 03:02:03;;;;;;;;;;;;;;;17.40;49.31;102235.50;5039074;28;1143;-57
2022/10/17 03:04:29;;;;;;;;;;;;;;;17.14;48.36;102233.28;5038528;28;1122;-58
2022/10/17 03:06:55;;;;;;;;;;;;;;;17.03;47.76;102233.06;5054786;28;1311;-56
2022/10/17 03:09:21;;;;;;;;;;;;;;;17.98;48.25;102231.94;5058303;28;1915;-58
2022/10/17 03:11:47;;;;;;;;;;;;;;;17.28;48.74;102251.19;5076406;28;1174;-61
2022/10/17 03:14:12;;;;;;;;;;;;;;;17.03;47.90;102235.81;5058461;28;1266;-57
2022/10/17 03:16:38;;;;;;;;;;;;;;;16.86;47.44;102245.84;5065339;28;1229;-58
2022/10/17 03:19:04;;;;;;;;;;;;;;;17.44;48.68;102236.66;5061444;28;1230;-59
2022/10/17 03:21:30;;;;;;;;;;;;;;;17.00;48.29;102240.94;5062404;28;1139;-60
2022/10/17 03:23:56;;;;;;;;;;;;;;;18.35;47.89;102235.06;5053313;28;1403;-58
2022/10/17 03:26:22;;;;;;;;;;;;;;;17.55;48.93;102243.22;5069499;28;1558;-58
2022/10/17 03:28:48;;;;;;;;;;;;;;;17.15;48.58;102251.44;5067127;28;1898;-57
2022/10/17 03:31:14;;;;;;;;;;;;;;;17.99;48.46;102250.13;5077690;28;1277;-58
2022/10/17 03:33:40;;;;;;;;;;;;;;;17.30;48.80;102250.94;5045745;28;1207;-59
2022/10/17 03:36:07;;;;;;;;;;;;;;;17.06;48.08;102246.31;5066504;28;1237;-59
2022/10/17 03:38:33;;;;;;;;;;;;;;;16.95;47.54;102255.41;5061232;28;1345;-60
2022/10/17 03:40:58;;;;;;;;;;;;;;;17.54;48.69;102251.72;5061429;28;1214;-60
2022/10/17 03:43:25;;;;;;;;;;;;;;;17.07;48.63;102253.50;5061463;28;1254;-60
2022/10/17 03:45:50;;;;;;;;;;;;;;;16.98;47.78;102252.16;5078217;28;1213;-59
2022/10/17 03:48:16;;;;;;;;;;;;;;;18.36;47.50;102246.94;5055191;28;2526;-61
2022/10/17 03:50:41;;;;;;;;;;;;;;;17.43;48.73;102246.00;5042469;28;1151;-60
2022/10/17 03:53:07;;;;;;;;;;;;;;;17.14;48.06;102247.88;5056636;28;1097;-57
2022/10/17 03:55:32;;;;;;;;;;;;;;;17.44;48.33;102247.66;5057809;28;1381;-57
2022/10/17 03:57:58;;;;;;;;;;;;;;;17.75;48.63;102248.31;5061477;28;1433;-58
2022/10/17 04:00:24;;;;;;;;;;;;;;;17.30;48.44;102254.53;5050984;28;1315;-53
2022/10/17 04:02:54;;;;;;;;;;;;;;;19.02;47.29;102255.41;5059064;28;1294;-55
2022/10/17 04:05:20;;;;;;;;;;;;;;;14.98;56.86;102248.47;5074135;28;1226;-56
2022/10/17 04:07:46;;;;;;;;;;;;;;;17.76;50.73;102247.19;5060663;28;1231;-56
2022/10/17 04:10:13;;;;;;;;;;;;;;;16.37;54.04;102230.41;5060413;28;1988;-57
2022/10/17 04:12:39;;;;;;;;;;;;;;;15.68;55.16;102233.53;5078685;28;1361;-56
2022/10/17 04:15:04;;;;;;;;;;;;;;;18.42;50.15;102235.72;5078621;28;1068;-57
2022/10/17 04:17:30;;;;;;;;;;;;;;;17.52;50.90;102232.72;5060351;28;1923;-58
2022/10/17 04:19:55;;;;;;;;;;;;;;;17.07;50.35;102225.19;5048523;28;1166;-58
2022/10/17 04:22:22;;;;;;;;;;;;;;;16.99;48.66;102223.63;5058962;28;1474;-54
2022/10/17 04:24:47;;;;;;;;;;;;;;;17.50;50.09;102231.28;5055455;28;1217;-56
2022/10/17 04:27:31;;;;;;;;;;;;;;;17.35;50.12;102237.28;5054698;28;1120;-58
2022/10/17 04:29:57;;;;;;;;;;;;;;;17.05;48.89;102239.13;5059702;28;1964;-55
2022/10/17 04:32:24;;;;;;;;;;;;;;;17.20;49.46;102240.56;5060792;28;1338;-56
2022/10/17 04:35:12;;;;;;;;;;;;;;;17.29;49.45;102247.34;5046649;28;1332;-58
2022/10/17 04:37:41;;;;;;;;;;;;;;;17.02;48.86;102269.84;5060685;28;1163;-56
2022/10/17 04:40:13;;;;;;;;;;;;;;;18.24;48.94;102282.78;5059090;28;1277;-54
2022/10/17 04:42:39;;;;;;;;;;;;;;;17.40;49.98;102282.25;5059927;28;1425;-56
2022/10/17 04:45:05;;;;;;;;;;;;;;;17.15;48.98;102282.50;5049877;28;1220;-55
2022/10/17 04:47:31;;;;;;;;;;;;;;;16.99;48.05;102292.31;5042265;28;1967;-57
2022/10/17 04:49:56;;;;;;;;;;;;;;;18.01;48.81;102301.09;5059948;28;1977;-57
2022/10/17 04:52:22;;;;;;;;;;;;;;;17.32;48.93;102296.38;5059571;28;1203;-56
2022/10/17 04:54:48;;;;;;;;;;;;;;;17.07;48.31;102297.47;5064071;28;934;-56
2022/10/17 04:57:14;;;;;;;;;;;;;;;17.48;48.51;102303.03;5059704;28;1271;-58
2022/10/17 04:59:44;;;;;;;;;;;;;;;17.53;49.23;102305.03;5075730;28;1365;-56
2022/10/17 05:02:17;;;;;;;;;;;;;;;17.18;48.55;102308.69;5059465;28;1119;-56
2022/10/17 05:04:43;;;;;;;;;;;;;;;18.36;48.13;102302.81;5049015;28;1229;-58
2022/10/17 05:07:10;;;;;;;;;;;;;;;17.48;48.96;102307.69;5060214;28;1163;-59
2022/10/17 05:09:59;;;;;;;;;;;;;;;17.18;48.05;102308.69;5069311;28;1917;-61
2022/10/17 05:12:24;;;;;;;;;;;;;;;17.13;47.45;102311.34;5060208;28;1210;-59
2022/10/17 05:14:50;;;;;;;;;;;;;;;18.16;48.29;102318.97;5059992;28;1238;-63
2022/10/17 05:17:15;;;;;;;;;;;;;;;17.48;48.90;102316.78;5059720;28;1174;-63
2022/10/17 05:19:41;;;;;;;;;;;;;;;17.22;48.16;102329.13;5074334;28;2094;-63
2022/10/17 05:22:07;;;;;;;;;;;;;;;16.95;47.75;102332.34;5076541;28;1145;-65
2022/10/17 05:24:32;;;;;;;;;;;;;;;18.23;47.75;102334.28;5059934;28;1122;-65
2022/10/17 05:26:58;;;;;;;;;;;;;;;17.36;48.62;102338.81;5059624;28;1185;-61
2022/10/17 05:29:24;;;;;;;;;;;;;;;17.14;48.29;102332.22;5059364;28;1913;-61
2022/10/17 05:31:54;;;;;;;;;;;;;;;17.70;48.55;102333.47;5059590;28;1238;-62
2022/10/17 05:34:20;;;;;;;;;;;;;;;17.27;48.33;102340.22;5077497;28;1104;-62
2022/10/17 05:36:45;;;;;;;;;;;;;;;18.06;47.14;102339.72;5059235;28;1352;-62
2022/10/17 05:39:14;;;;;;;;;;;;;;;17.86;47.34;102342.03;5059242;28;1337;-62
2022/10/17 05:41:40;;;;;;;;;;;;;;;17.51;48.54;102356.72;5058311;28;1451;-62
2022/10/17 05:44:06;;;;;;;;;;;;;;;17.30;49.23;102355.41;5077035;28;1162;-62
2022/10/17 05:46:44;;;;;;;;;;;;;;;17.14;49.71;102351.47;5059069;28;1195;-62
2022/10/17 05:49:09;;;;;;;;;;;;;;;16.96;49.97;102363.41;5049833;28;2028;-62
2022/10/17 05:51:35;;;;;;;;;;;;;;;16.84;50.54;102355.13;5059227;28;1262;-62
2022/10/17 05:54:04;;;;;;;;;;;;;;;16.76;50.77;102356.31;5058071;28;1216;-61
2022/10/17 05:56:29;;;;;;;;;;;;;;;16.67;50.83;102357.72;5057804;28;1474;-60
2022/10/17 05:58:55;;;;;;;;;;;;;;;16.56;51.02;102370.34;5057885;28;1194;-61
2022/10/17 06:01:36;;;;;;;;;;;;;;;16.48;51.18;102373.41;5059253;28;1431;-60
2022/10/17 06:04:02;;;;;;;;;;;;;;;16.42;51.50;102383.44;5077135;28;1111;-64
2022/10/17 06:06:27;;;;;;;;;;;;;;;16.33;51.63;102379.34;5055628;28;1087;-63
2022/10/17 06:08:54;;;;;;;;;;;;;;;16.26;51.91;102382.19;5047784;28;1909;-63
2022/10/17 06:11:24;;;;;;;;;;;;;;;16.23;51.97;102374.44;5076887;28;1198;-65
2022/10/17 06:13:50;;;;;;;;;;;;;;;16.12;52.17;102377.94;5058868;28;1167;-63
2022/10/17 06:16:21;;;;;;;;;;;;;;;16.10;52.19;102385.56;5058856;28;1114;-62
2022/10/17 06:18:47;;;;;;;;;;;;;;;15.97;52.69;102392.91;5052849;28;1805;-59
2022/10/17 06:21:13;;;;;;;;;;;;;;;15.97;52.57;102381.91;5056127;28;1296;-60
2022/10/17 06:23:43;;;;;;;;;;;;;;;15.94;52.60;102393.34;5046339;28;1376;-63
2022/10/17 06:26:15;;;;;;;;;;;;;;;17.27;49.79;102395.22;5048446;28;1300;-63
2022/10/17 06:28:41;;;;;;;;;;;;;;;17.03;50.25;102395.19;5074702;28;1913;-62
2022/10/17 06:31:07;;;;;;;;;;;;;;;16.48;51.53;102393.50;5067940;28;1316;-62
2022/10/17 06:33:32;;;;;;;;;;;;;;;16.31;51.97;102409.75;5050673;28;1247;-61
2022/10/17 06:35:58;;;;;;;;;;;;;;;16.20;52.63;102407.81;5048171;28;1312;-58
2022/10/17 06:38:24;;;;;;;;;;;;;;;16.07;52.85;102406.06;5038521;28;1291;-61
2022/10/17 06:40:53;;;;;;;;;;;;;;;16.00;53.02;102408.88;5038480;28;1246;-60
2022/10/17 06:43:19;;;;;;;;;;;;;;;15.95;53.21;102410.66;5075652;28;1032;-61
2022/10/17 06:46:10;;;;;;;;;;;;;;;16.36;52.35;102420.88;5026161;28;1134;-60
2022/10/17 06:48:37;;;;;;;;;;;;;;;17.55;49.02;102419.25;5061738;28;1906;-61
2022/10/17 06:51:26;;;;;;;;;;;;;;;16.65;51.43;102426.63;5057731;28;1175;-58
2022/10/17 06:53:54;;;;;;;;;;;;;;;16.37;52.30;102428.06;5057344;28;1154;-59
2022/10/17 06:56:34;;;;;;;;;;;;;;;16.21;52.73;102429.53;5049721;28;1292;-59
2022/10/17 06:59:18;;;;;;;;;;;;;;;17.47;49.59;102432.53;5063065;28;1025;-56
2022/10/17 07:01:51;;;;;;;;;;;;;;;16.96;50.73;102426.59;5058334;28;1229;-57
2022/10/17 07:04:16;;;;;;;;;;;;;;;16.59;51.76;102427.53;5047053;28;1127;-58
2022/10/17 07:06:42;;;;;;;;;;;;;;;16.37;52.24;102425.31;5067567;28;1186;-56
2022/10/17 07:09:21;;;;;;;;;;;;;;;16.22;52.82;102430.38;5057609;28;1985;-56
2022/10/17 07:11:47;;;;;;;;;;;;;;;16.16;52.76;102428.53;5058085;28;1210;-57
2022/10/17 07:14:16;;;;;;;;;;;;;;;16.30;52.89;102430.06;5074532;28;1346;-58
2022/10/17 07:16:41;;;;;;;;;;;;;;;17.62;49.39;102430.13;5062765;28;1269;-57
2022/10/17 07:19:14;;;;;;;;;;;;;;;16.78;51.37;102444.81;5050187;28;1821;-58
2022/10/17 07:21:39;;;;;;;;;;;;;;;16.53;52.03;102444.97;5075160;28;1276;-57
2022/10/17 07:24:07;;;;;;;;;;;;;;;16.31;52.80;102448.19;5057591;28;1222;-58
2022/10/17 07:26:33;;;;;;;;;;;;;;;16.24;52.79;102450.19;5057531;28;1373;-59
2022/10/17 07:29:00;;;;;;;;;;;;;;;16.12;53.31;102452.03;5057831;28;2067;-57
2022/10/17 07:31:47;;;;;;;;;;;;;;;16.05;53.15;102443.88;5066398;28;1387;-59
2022/10/17 07:34:13;;;;;;;;;;;;;;;17.58;49.94;102442.69;5075662;28;1139;-62
2022/10/17 07:36:39;;;;;;;;;;;;;;;16.93;51.30;102449.91;5057973;28;1318;-60
2022/10/17 07:39:06;;;;;;;;;;;;;;;16.55;52.44;102448.31;5057942;28;1265;-60
2022/10/17 07:41:34;;;;;;;;;;;;;;;16.40;52.87;102446.00;5057546;28;1289;-58
2022/10/17 07:43:59;;;;;;;;;;;;;;;16.24;53.13;102450.19;5057439;28;1166;-57
2022/10/17 07:46:32;;;;;;;;;;;;;;;16.57;52.50;102447.00;5073675;28;1305;-58
2022/10/17 07:48:58;;;;;;;;;;;;;;;17.63;49.58;102448.31;5073763;28;1992;-58
2022/10/17 07:51:24;;;;;;;;;;;;;;;16.85;51.60;102447.47;5046026;28;1351;-59
2022/10/17 07:53:49;;;;;;;;;;;;;;;16.57;52.49;102444.25;5056194;28;1293;-58
2022/10/17 07:56:15;;;;;;;;;;;;;;;16.40;52.82;102443.25;5074660;28;1222;-58
2022/10/17 07:58:40;;;;;;;;;;;;;;;16.29;53.14;102433.88;5058631;28;1154;-57
2022/10/17 08:01:06;;;;;;;;;;;;;;;16.24;53.13;102441.94;5055395;28;1234;-57
2022/10/17 08:03:32;;;;;;;;;;;;;;;16.13;53.16;102439.97;5055418;28;1253;-58
2022/10/17 08:06:00;;;;;;;;;;;;;;;17.59;49.74;102433.34;5060394;28;1403;-58
2022/10/17 08:08:26;;;;;;;;;;;;;;;16.92;51.55;102431.75;5078316;28;1973;-58
2022/10/17 08:10:52;;;;;;;;;;;;;;;16.58;52.32;102436.88;5078324;28;1285;-57
2022/10/17 08:13:18;;;;;;;;;;;;;;;16.33;52.86;102440.56;5078500;28;1193;-56
2022/10/17 08:15:46;;;;;;;;;;;;;;;16.24;53.12;102440.06;5060449;28;1242;-56
2022/10/17 08:18:13;;;;;;;;;;;;;;;16.17;53.47;102441.19;5076394;28;2388;-56
2022/10/17 08:20:39;;;;;;;;;;;;;;;17.60;49.96;102435.03;5074559;28;1249;-56
2022/10/17 08:23:04;;;;;;;;;;;;;;;16.85;51.93;102431.81;5058666;28;1366;-56
2022/10/17 08:25:29;;;;;;;;;;;;;;;16.55;52.72;102448.31;5058506;28;1222;-55
2022/10/17 08:27:55;;;;;;;;;;;;;;;16.40;53.18;102446.00;5061084;28;1358;-57
2022/10/17 08:30:21;;;;;;;;;;;;;;;16.26;53.11;102439.84;5045247;28;1934;-57
2022/10/17 08:32:47;;;;;;;;;;;;;;;16.16;53.50;102432.16;5060605;28;1179;-56
2022/10/17 08:35:13;;;;;;;;;;;;;;;16.08;53.38;102438.75;5062669;28;1269;-58
2022/10/17 08:37:39;;;;;;;;;;;;;;;16.89;51.83;102446.78;5070493;28;1119;-57
2022/10/17 08:40:04;;;;;;;;;;;;;;;17.54;49.86;102444.25;5078977;28;1131;-57
2022/10/17 08:42:39;;;;;;;;;;;;;;;16.73;52.15;102445.53;5078484;28;1139;-57
2022/10/17 08:45:16;;;;;;;;;;;;;;;16.49;52.84;102444.56;5078562;28;1127;-57
2022/10/17 08:47:46;;;;;;;;;;;;;;;16.35;52.95;102449.41;5078097;28;1986;-57
2022/10/17 08:50:13;;;;;;;;;;;;;;;16.23;53.36;102448.53;5060118;28;1909;-57
2022/10/17 08:52:41;;;;;;;;;;;;;;;17.27;50.98;102442.78;5060581;28;1159;-57
2022/10/17 08:55:16;;;;;;;;;;;;;;;17.19;50.94;102442.31;5060153;28;1375;-57
2022/10/17 08:57:42;;;;;;;;;;;;;;;16.66;52.34;102438.44;5078373;28;1118;-57
2022/10/17 09:00:12;;;;;;;;;;;;;;;16.48;53.05;102447.56;5078130;28;1079;-57
2022/10/17 09:02:42;;;;;;;;;;;;;;;16.35;53.31;102432.94;5069283;28;1209;-57
2022/10/17 09:05:25;;;;;;;;;;;;;;;16.41;53.07;102448.50;5072139;28;1207;-57
2022/10/17 09:08:10;;;;;;;;;;;;;;;17.48;50.25;102440.53;5077584;28;865;-57
2022/10/17 09:10:38;;;;;;;;;;;;;;;16.73;52.28;102439.19;5078095;28;1910;-57
2022/10/17 09:13:22;;;;;;;;;;;;;;;16.54;53.02;102452.13;5078092;28;1142;-57
2022/10/17 09:15:54;;;;;;;;;;;;;;;16.38;53.39;102446.22;5077819;28;1130;-57
2022/10/17 09:18:22;;;;;;;;;;;;;;;16.26;53.28;102456.31;5075011;28;1912;-57
2022/10/17 09:20:51;;;;;;;;;;;;;;;16.17;53.56;102453.03;5077338;28;1146;-60
2022/10/17 09:23:27;;;;;;;;;;;;;;;16.78;52.46;102450.31;5075731;28;1154;-57
2022/10/17 09:25:56;;;;;;;;;;;;;;;17.36;50.81;102445.19;5065761;28;1091;-56
2022/10/17 09:28:26;;;;;;;;;;;;;;;16.71;52.60;102452.31;5065234;28;1155;-56
2022/10/17 09:30:55;;;;;;;;;;;;;;;16.49;53.14;102450.06;5077121;28;1166;-56
2022/10/17 09:33:29;;;;;;;;;;;;;;;16.34;53.54;102458.72;5077137;28;1185;-56
2022/10/17 09:35:55;;;;;;;;;;;;;;;16.19;53.91;102458.28;5059342;28;1471;-56
2022/10/17 09:38:21;;;;;;;;;;;;;;;16.13;53.99;102445.47;5073609;28;1394;-56
2022/10/17 09:41:04;;;;;;;;;;;;;;;16.05;54.21;102452.94;5077162;28;1038;-57
2022/10/17 09:43:30;;;;;;;;;;;;;;;16.48;53.70;102448.41;5058666;28;1328;-55
2022/10/17 09:46:03;;;;;;;;;;;;;;;17.71;50.28;102439.69;5077590;28;1114;-56
2022/10/17 09:48:34;;;;;;;;;;;;;;;16.80;52.81;102447.31;5055229;28;2059;-55
2022/10/17 09:51:00;;;;;;;;;;;;;;;16.50;53.51;102442.69;5060137;28;1205;-57
2022/10/17 09:53:29;;;;;;;;;;;;;;;16.42;53.74;102441.94;5057116;28;1281;-56
2022/10/17 09:56:00;;;;;;;;;;;;;;;16.28;54.32;102440.44;5052295;28;1136;-54
2022/10/17 09:58:44;;;;;;;;;;;;;;;16.15;54.45;102451.59;5047428;28;1186;-54
2022/10/17 10:01:23;;;;;;;;;;;;;;;16.05;54.38;102439.22;5077174;28;1194;-53
2022/10/17 10:04:06;;;;;;;;;;;;;;;16.74;53.47;102441.69;5076431;28;1198;-51
2022/10/17 10:06:31;;;;;;;;;;;;;;;17.44;51.47;102451.16;5059118;28;1076;-54
2022/10/17 10:09:03;;;;;;;;;;;;;;;16.73;53.41;102440.03;5049434;28;1976;-53
2022/10/17 10:11:47;;;;;;;;;;;;;;;16.47;54.14;102435.75;5076636;28;1178;-53
2022/10/17 10:14:32;;;;;;;;;;;;;;;16.29;54.45;102433.88;5076563;28;1143;-56
2022/10/17 10:16:58;;;;;;;;;;;;;;;16.20;54.56;102429.75;5076792;28;1246;-54
2022/10/17 10:19:34;;;;;;;;;;;;;;;16.93;53.12;102434.25;5076169;28;2260;-54
2022/10/17 10:22:00;;;;;;;;;;;;;;;17.32;52.10;102432.97;5062850;28;1044;-51
2022/10/17 10:24:26;;;;;;;;;;;;;;;16.71;53.50;102424.84;5076747;28;1067;-56
2022/10/17 10:26:53;;;;;;;;;;;;;;;16.54;53.83;102424.69;5076047;28;1103;-56
2022/10/17 10:29:29;;;;;;;;;;;;;;;16.39;54.17;102423.16;5076242;28;1910;-55
2022/10/17 10:31:55;;;;;;;;;;;;;;;16.23;54.51;102419.16;5075580;28;1263;-56
2022/10/17 10:34:28;;;;;;;;;;;;;;;16.15;54.59;102426.88;5076561;28;1184;-56
2022/10/17 10:36:54;;;;;;;;;;;;;;;16.09;54.66;102417.66;5076601;28;1091;-56
2022/10/17 10:39:31;;;;;;;;;;;;;;;17.38;52.14;102413.63;5072956;28;1083;-56
2022/10/17 10:41:57;;;;;;;;;;;;;;;16.95;53.15;102423.03;5067288;28;1198;-54
2022/10/17 10:44:23;;;;;;;;;;;;;;;16.54;54.33;102430.16;5076191;28;1134;-57
2022/10/17 10:46:51;;;;;;;;;;;;;;;16.40;54.57;102421.28;5049931;28;1205;-56
2022/10/17 10:49:43;;;;;;;;;;;;;;;16.29;54.74;102408.34;5050645;28;1913;-56
2022/10/17 10:52:13;;;;;;;;;;;;;;;17.70;51.27;102409.69;5070204;28;1901;-54
2022/10/17 10:54:41;;;;;;;;;;;;;;;16.88;53.33;102411.28;5058700;28;1296;-54
2022/10/17 10:57:08;;;;;;;;;;;;;;;16.54;54.28;102406.28;5057958;28;954;-55
2022/10/17 10:59:34;;;;;;;;;;;;;;;16.41;54.52;102412.81;5057905;28;1740;-55
2022/10/17 11:02:01;;;;;;;;;;;;;;;16.31;54.44;102412.50;5076063;28;1201;-54
2022/10/17 11:04:26;;;;;;;;;;;;;;;16.17;54.82;102403.63;5076161;28;1130;-55
2022/10/17 11:06:52;;;;;;;;;;;;;;;16.17;54.57;102398.16;5076091;28;1142;-56
2022/10/17 11:09:36;;;;;;;;;;;;;;;17.65;51.74;102396.63;5057686;28;1901;-57
2022/10/17 11:12:12;;;;;;;;;;;;;;;16.87;53.54;102390.34;5076190;28;936;-56
2022/10/17 11:14:43;;;;;;;;;;;;;;;16.56;54.01;102400.56;5058192;28;1175;-57
2022/10/17 11:17:12;;;;;;;;;;;;;;;16.41;54.59;102401.81;5058206;28;1095;-55
2022/10/17 11:19:42;;;;;;;;;;;;;;;16.25;54.85;102396.97;5073991;28;2094;-56
2022/10/17 11:22:11;;;;;;;;;;;;;;;16.22;54.55;102390.03;5076059;28;1174;-56
2022/10/17 11:24:49;;;;;;;;;;;;;;;16.26;54.99;102384.94;5058127;28;1071;-57
2022/10/17 11:27:14;;;;;;;;;;;;;;;17.76;51.28;102375.69;5076033;28;1122;-56
2022/10/17 11:29:40;;;;;;;;;;;;;;;16.88;53.54;102381.91;5075357;28;1979;-57
2022/10/17 11:32:12;;;;;;;;;;;;;;;16.56;54.15;102384.94;5075515;28;1174;-56
2022/10/17 11:34:39;;;;;;;;;;;;;;;16.42;54.45;102395.28;5047079;28;1171;-55
2022/10/17 11:37:08;;;;;;;;;;;;;;;16.28;54.70;102387.44;5055614;28;1166;-54
2022/10/17 11:39:47;;;;;;;;;;;;;;;16.20;54.85;102383.09;5059884;28;1099;-54
2022/10/17 11:42:45;;;;;;;;;;;;;;;16.34;54.73;102381.88;5062418;28;1191;-50
2022/10/17 11:45:13;;;;;;;;;;;;;;;17.68;51.36;102385.13;5036369;28;1171;-54
2022/10/17 11:47:38;;;;;;;;;;;;;;;16.86;53.49;102370.31;5047608;28;2006;-54
2022/10/17 11:50:23;;;;;;;;;;;;;;;16.59;54.12;102378.09;5079333;28;1909;-54
2022/10/17 11:53:09;;;;;;;;;;;;;;;16.40;54.73;102389.16;5061821;28;1084;-57
2022/10/17 11:55:37;;;;;;;;;;;;;;;16.24;55.06;102387.06;5047604;28;1239;-56
2022/10/17 11:58:23;;;;;;;;;;;;;;;16.19;55.04;102390.50;5062221;28;1198;-56
2022/10/17 12:00:48;;;;;;;;;;;;;;;16.26;54.97;102384.94;5079233;28;1179;-56
2022/10/17 12:03:20;;;;;;;;;;;;;;;17.73;51.64;102390.75;5079743;28;1186;-56
2022/10/17 12:06:14;;;;;;;;;;;;;;;16.90;53.46;102381.66;5069337;28;1021;-56
2022/10/17 12:08:45;;;;;;;;;;;;;;;16.55;54.56;102372.28;5058808;28;1941;-56
2022/10/17 12:11:19;;;;;;;;;;;;;;;16.33;55.00;102390.34;5067552;28;1199;-57
2022/10/17 12:13:44;;;;;;;;;;;;;;;16.24;54.94;102376.06;5058980;28;1068;-56
2022/10/17 12:16:15;;;;;;;;;;;;;;;16.17;55.01;102380.81;5070861;28;1103;-54
2022/10/17 12:18:41;;;;;;;;;;;;;;;16.70;54.01;102382.78;5079249;28;1809;-57
2022/10/17 12:21:06;;;;;;;;;;;;;;;17.44;52.13;102387.09;5060233;28;897;-53
2022/10/17 12:23:32;;;;;;;;;;;;;;;16.77;54.04;102394.53;5078624;28;1211;-55
2022/10/17 12:26:00;;;;;;;;;;;;;;;16.48;54.48;102392.66;5078979;28;1102;-55
2022/10/17 12:28:44;;;;;;;;;;;;;;;16.38;54.59;102385.81;5060392;28;1269;-55
2022/10/17 12:31:16;;;;;;;;;;;;;;;16.25;54.80;102392.31;5058547;28;1067;-57
2022/10/17 12:33:44;;;;;;;;;;;;;;;16.12;54.92;102384.28;5074399;28;1217;-56
2022/10/17 12:36:16;;;;;;;;;;;;;;;16.06;54.97;102386.03;5057896;28;1206;-56
2022/10/17 12:38:44;;;;;;;;;;;;;;;16.20;55.09;102380.34;5057877;28;1223;-56
2022/10/17 12:41:10;;;;;;;;;;;;;;;17.62;51.64;102388.88;5057971;28;1175;-55
2022/10/17 12:43:51;;;;;;;;;;;;;;;16.85;53.84;102387.03;5058316;28;1285;-54
2022/10/17 12:46:35;;;;;;;;;;;;;;;16.46;54.67;102392.06;5058295;28;1128;-54
2022/10/17 12:49:01;;;;;;;;;;;;;;;16.32;54.86;102389.47;5072643;28;1980;-55
2022/10/17 12:51:28;;;;;;;;;;;;;;;16.24;54.96;102387.06;5038987;28;1235;-54
2022/10/17 12:53:56;;;;;;;;;;;;;;;16.70;54.30;102388.28;5057657;28;1199;-53
2022/10/17 12:56:31;;;;;;;;;;;;;;;17.64;51.71;102375.69;5061351;28;1241;-55
2022/10/17 12:58:57;;;;;;;;;;;;;;;16.82;53.69;102380.09;5067147;28;1182;-55